createdAt,value
2023-02-13T00:01:55.454Z,1.30
2023-02-13T00:04:26.383Z,1.40
2023-02-13T00:06:57.370Z,1.30
2023-02-13T00:09:28.606Z,1.30
2023-02-13T00:11:59.553Z,1.10
2023-02-13T00:14:30.633Z,1.10
2023-02-13T00:17:01.488Z,1.10
2023-02-13T00:19:32.617Z,1.30
2023-02-13T00:22:03.510Z,1.20
2023-02-13T00:24:34.563Z,1.30
2023-02-13T00:27:05.727Z,1.20
2023-02-13T00:29:36.610Z,1.20
2023-02-13T00:32:08.087Z,1.10
2023-02-13T00:34:39.401Z,1.10
2023-02-13T00:37:10.500Z,1.00
2023-02-13T00:39:41.727Z,1.10
2023-02-13T00:42:12.685Z,1.00
2023-02-13T00:44:43.559Z,1.10
2023-02-13T00:47:15.031Z,1.10
2023-02-13T00:49:46.187Z,1.20
2023-02-13T00:52:17.222Z,1.20
2023-02-13T00:54:48.549Z,1.30
2023-02-13T00:57:19.536Z,1.20
2023-02-13T00:59:51.193Z,1.40
2023-02-13T01:02:23.072Z,1.30
2023-02-13T01:04:54.068Z,1.20
2023-02-13T01:07:25.385Z,1.00
2023-02-13T01:09:56.181Z,1.10
2023-02-13T01:12:27.044Z,1.10
2023-02-13T01:14:57.954Z,1.00
2023-02-13T01:17:28.971Z,0.90
2023-02-13T01:20:00.150Z,0.80
2023-02-13T01:22:31.149Z,0.80
2023-02-13T01:25:02.097Z,0.80
2023-02-13T01:27:33.451Z,0.80
2023-02-13T01:30:04.742Z,0.80
2023-02-13T01:32:35.681Z,0.80
2023-02-13T01:35:07.189Z,0.90
2023-02-13T01:37:39.244Z,0.70
2023-02-13T01:40:14.243Z,0.80
2023-02-13T01:42:45.315Z,0.70
2023-02-13T01:45:27.622Z,0.70
2023-02-13T01:48:01.567Z,0.60
2023-02-13T01:50:35.519Z,0.60
2023-02-13T01:53:09.263Z,0.60
2023-02-13T01:55:43.576Z,0.50
2023-02-13T01:58:18.779Z,0.50
2023-02-13T02:01:09.609Z,0.50
2023-02-13T02:03:43.363Z,0.30
2023-02-13T02:06:18.146Z,0.20
2023-02-13T02:08:51.637Z,0.30
2023-02-13T02:11:26.771Z,0.40
2023-02-13T02:13:59.368Z,0.50
2023-02-13T02:16:30.635Z,0.90
2023-02-13T02:19:02.881Z,1.00
2023-02-13T02:25:13.479Z,0.80
2023-02-13T02:28:06.654Z,0.50
2023-02-13T02:33:58.959Z,0.70
2023-02-13T02:36:37.801Z,0.40
2023-02-13T02:39:12.927Z,0.40
2023-02-13T02:41:51.968Z,0.50
2023-02-13T02:44:33.215Z,0.50
2023-02-13T02:47:31.938Z,0.50
2023-02-13T02:50:09.406Z,0.40
2023-02-13T02:52:47.134Z,0.50
2023-02-13T02:55:25.536Z,0.40
2023-02-13T02:58:17.060Z,0.50
2023-02-13T03:01:07.508Z,0.30
2023-02-13T03:03:57.328Z,0.20
2023-02-13T03:06:31.652Z,0.30
2023-02-13T03:09:23.276Z,0.10
2023-02-13T03:12:13.903Z,0.10
2023-02-13T03:14:45.731Z,0.20
2023-02-13T03:17:37.256Z,0.20
2023-02-13T03:20:38.404Z,0.20
2023-02-13T03:23:18.161Z,0.10
2023-02-13T03:26:11.322Z,0.10
2023-02-13T03:29:02.959Z,0.10
2023-02-13T03:31:38.016Z,0.10
2023-02-13T03:34:11.520Z,-0.10
2023-02-13T03:37:07.083Z,0.00
2023-02-13T03:39:48.158Z,0.00
2023-02-13T03:42:22.403Z,-0.40
2023-02-13T03:45:15.844Z,-0.30
2023-02-13T03:47:49.124Z,-0.30
2023-02-13T03:50:21.459Z,-0.10
2023-02-13T03:52:55.158Z,-0.10
2023-02-13T03:55:46.548Z,-0.30
2023-02-13T03:58:38.050Z,-0.30
2023-02-13T04:01:11.979Z,-0.30
2023-02-13T04:03:46.480Z,-0.30
2023-02-13T04:06:20.594Z,-0.20
2023-02-13T04:08:51.586Z,-0.20
2023-02-13T04:11:25.546Z,0.00
2023-02-13T04:13:58.722Z,0.10
2023-02-13T04:16:34.432Z,0.40
2023-02-13T04:19:06.501Z,0.30
2023-02-13T04:21:38.226Z,0.40
2023-02-13T04:24:10.602Z,0.50
2023-02-13T04:26:44.023Z,0.10
2023-02-13T04:29:15.175Z,-0.10
2023-02-13T04:31:46.353Z,-0.10
2023-02-13T04:34:17.629Z,-0.10
2023-02-13T04:36:48.554Z,-0.10
2023-02-13T04:39:19.650Z,-0.20
2023-02-13T04:41:50.650Z,-0.40
2023-02-13T04:44:21.568Z,-0.30
2023-02-13T04:46:52.714Z,-0.30
2023-02-13T04:49:23.824Z,-0.20
2023-02-13T04:51:54.899Z,0.00
2023-02-13T04:54:25.826Z,0.00
2023-02-13T04:56:56.742Z,-0.10
2023-02-13T04:59:27.869Z,-0.10
2023-02-13T05:01:59.473Z,-0.20
2023-02-13T05:04:30.783Z,0.00
2023-02-13T05:07:01.802Z,-0.20
2023-02-13T05:09:32.785Z,-0.20
2023-02-13T05:12:03.797Z,-0.10
2023-02-13T05:17:12.333Z,-0.50
2023-02-13T05:19:43.324Z,-0.60
2023-02-13T05:22:32.182Z,-0.60
2023-02-13T05:27:41.555Z,-0.40
2023-02-13T05:30:15.380Z,-0.60
2023-02-13T05:32:46.351Z,-0.70
2023-02-13T05:35:17.460Z,-0.60
2023-02-13T05:37:48.380Z,-0.60
2023-02-13T05:40:21.314Z,-0.60
2023-02-13T05:42:53.908Z,-0.70
2023-02-13T05:45:25.024Z,-0.60
2023-02-13T05:47:56.274Z,-0.50
2023-02-13T05:50:27.274Z,-0.50
2023-02-13T05:52:58.103Z,-0.60
2023-02-13T05:55:29.312Z,-0.60
2023-02-13T05:58:00.431Z,-0.60
2023-02-13T06:00:31.411Z,-0.60
2023-02-13T06:03:02.405Z,-0.60
2023-02-13T06:05:33.526Z,-0.60
2023-02-13T06:08:04.778Z,-0.30
2023-02-13T06:10:36.297Z,-0.40
2023-02-13T06:13:07.575Z,-0.40
2023-02-13T06:15:38.528Z,-0.40
2023-02-13T06:18:28.155Z,-0.50
2023-02-13T06:20:59.870Z,-0.50
2023-02-13T06:23:31.517Z,-0.60
2023-02-13T06:26:06.942Z,-0.80
2023-02-13T06:28:38.456Z,-0.90
2023-02-13T06:31:09.471Z,-1.00
2023-02-13T06:33:40.603Z,-1.00
2023-02-13T06:36:11.833Z,-0.90
2023-02-13T06:38:43.303Z,-0.70
2023-02-13T06:41:14.665Z,-0.70
2023-02-13T06:43:45.687Z,-0.60
2023-02-13T06:46:16.870Z,-0.50
2023-02-13T06:48:48.452Z,-0.40
2023-02-13T06:51:19.565Z,-0.50
2023-02-13T06:53:50.682Z,-0.60
2023-02-13T06:56:21.982Z,-0.40
2023-02-13T06:58:53.113Z,-0.40
2023-02-13T07:01:24.176Z,-0.40
2023-02-13T07:03:55.282Z,-0.40
2023-02-13T07:06:26.535Z,-0.30
2023-02-13T07:11:42.399Z,-0.40
2023-02-13T07:14:13.486Z,-0.50
2023-02-13T07:16:46.133Z,-0.60
2023-02-13T07:19:17.478Z,-0.70
2023-02-13T07:21:48.468Z,-0.70
2023-02-13T07:24:19.608Z,-0.80
2023-02-13T07:26:50.801Z,-0.80
2023-02-13T07:29:21.908Z,-0.70
2023-02-13T07:31:53.195Z,-0.70
2023-02-13T07:34:24.557Z,-0.60
2023-02-13T07:36:55.940Z,-0.60
2023-02-13T07:39:27.000Z,-0.50
2023-02-13T07:41:58.822Z,-0.40
2023-02-13T07:44:29.971Z,-0.40
2023-02-13T07:47:02.207Z,-0.40
2023-02-13T07:49:33.466Z,-0.30
2023-02-13T07:52:04.664Z,-0.20
2023-02-13T07:54:35.739Z,-0.20
2023-02-13T07:57:07.840Z,-0.10
2023-02-13T07:59:38.819Z,-0.10
2023-02-13T08:02:14.616Z,-0.10
2023-02-13T08:04:47.125Z,0.00
2023-02-13T08:07:18.966Z,0.00
2023-02-13T08:10:07.831Z,-0.10
2023-02-13T08:12:39.759Z,-0.10
2023-02-13T08:15:13.600Z,0.20
2023-02-13T08:17:50.434Z,0.40
2023-02-13T08:20:22.195Z,0.60
2023-02-13T08:22:53.384Z,0.80
2023-02-13T08:25:24.447Z,1.10
2023-02-13T08:27:55.711Z,1.30
2023-02-13T08:30:26.931Z,1.50
2023-02-13T08:32:57.987Z,1.70
2023-02-13T08:35:31.954Z,2.00
2023-02-13T08:38:06.004Z,2.30
2023-02-13T08:40:37.416Z,2.30
2023-02-13T08:43:09.386Z,2.50
2023-02-13T08:45:40.306Z,2.50
2023-02-13T08:48:11.129Z,2.50
2023-02-13T08:50:42.236Z,2.60
2023-02-13T08:53:13.315Z,2.80
2023-02-13T08:55:44.217Z,2.90
2023-02-13T08:58:15.429Z,3.00
2023-02-13T09:00:46.509Z,3.00
2023-02-13T09:03:17.863Z,3.20
2023-02-13T09:05:48.916Z,3.20
2023-02-13T09:08:19.967Z,3.30
2023-02-13T09:10:53.932Z,3.40
2023-02-13T09:13:25.068Z,3.60
2023-02-13T09:15:59.018Z,3.50
2023-02-13T09:18:49.937Z,3.60
2023-02-13T09:21:22.938Z,3.60
2023-02-13T09:23:55.438Z,3.60
2023-02-13T09:26:26.409Z,3.60
2023-02-13T09:28:57.482Z,3.80
2023-02-13T09:31:29.757Z,3.80
2023-02-13T09:34:00.793Z,3.90
2023-02-13T09:36:33.355Z,4.10
2023-02-13T09:39:04.459Z,4.30
2023-02-13T09:41:38.030Z,4.50
2023-02-13T09:44:13.221Z,4.60
2023-02-13T09:46:46.075Z,4.60
2023-02-13T09:49:19.982Z,4.60
2023-02-13T09:51:54.357Z,4.60
2023-02-13T09:54:26.772Z,4.60
2023-02-13T09:57:01.886Z,4.80
2023-02-13T09:59:49.998Z,4.70
2023-02-13T10:02:53.723Z,4.90
2023-02-13T10:05:38.118Z,5.20
2023-02-13T10:08:12.730Z,5.30
2023-02-13T10:10:47.832Z,5.50
2023-02-13T10:13:26.908Z,5.50
2023-02-13T10:16:02.976Z,5.60
2023-02-13T10:21:17.909Z,5.90
2023-02-13T10:23:51.783Z,6.00
2023-02-13T10:26:27.500Z,6.20
2023-02-13T10:29:18.607Z,6.40
2023-02-13T10:31:52.795Z,6.40
2023-02-13T10:34:26.716Z,6.50
2023-02-13T10:36:57.984Z,6.80
2023-02-13T10:39:30.657Z,7.20
2023-02-13T10:42:05.807Z,7.30
2023-02-13T10:44:43.186Z,7.50
2023-02-13T10:50:07.386Z,7.90
2023-02-13T10:52:45.544Z,8.10
2023-02-13T10:58:10.774Z,8.30
2023-02-13T11:00:45.573Z,8.10
2023-02-13T11:03:22.472Z,8.40
2023-02-13T11:05:54.541Z,8.50
2023-02-13T11:08:27.605Z,8.60
2023-02-13T11:10:58.730Z,8.60
2023-02-13T11:13:50.518Z,8.90
2023-02-13T11:16:21.933Z,9.00
2023-02-13T11:18:53.723Z,9.20
2023-02-13T11:21:27.114Z,9.30
2023-02-13T11:23:59.075Z,9.50
2023-02-13T11:29:19.146Z,9.80
2023-02-13T11:31:51.658Z,9.90
2023-02-13T11:34:28.007Z,10.10
2023-02-13T11:39:51.416Z,10.30
2023-02-13T11:42:29.176Z,10.60
2023-02-13T11:45:03.918Z,10.60
2023-02-13T11:47:40.998Z,10.60
2023-02-13T11:50:26.550Z,10.90
2023-02-13T11:53:00.285Z,11.30
2023-02-13T11:55:34.557Z,11.60
2023-02-13T11:58:07.854Z,12.20
2023-02-13T12:00:41.776Z,12.00
2023-02-13T12:03:30.420Z,12.30
2023-02-13T12:06:08.155Z,12.40
2023-02-13T12:08:40.655Z,13.00
2023-02-13T12:11:18.390Z,13.20
2023-02-13T12:13:50.311Z,12.90
2023-02-13T12:16:25.318Z,13.20
2023-02-13T12:18:59.737Z,13.40
2023-02-13T12:21:40.811Z,13.40
2023-02-13T12:24:16.545Z,13.70
2023-02-13T12:26:49.880Z,13.70
2023-02-13T12:29:36.276Z,13.90
2023-02-13T12:32:14.464Z,14.10
2023-02-13T12:35:09.075Z,14.10
2023-02-13T12:37:54.932Z,14.50
2023-02-13T12:40:38.522Z,14.60
2023-02-13T12:43:26.198Z,14.50
2023-02-13T12:46:00.039Z,14.60
2023-02-13T12:51:25.058Z,14.80
2023-02-13T12:54:15.809Z,14.70
2023-02-13T12:57:03.340Z,15.10
2023-02-13T12:59:41.134Z,15.20
2023-02-13T13:02:50.885Z,15.10
2023-02-13T13:05:38.019Z,15.30
2023-02-13T13:08:17.646Z,15.50
2023-02-13T13:10:59.102Z,15.50
2023-02-13T13:13:41.034Z,15.80
2023-02-13T13:19:04.631Z,15.10
2023-02-13T13:21:42.115Z,15.00
2023-02-13T13:24:19.791Z,15.30
2023-02-13T13:26:54.552Z,14.80
2023-02-13T13:29:28.131Z,15.10
2023-02-13T13:32:02.255Z,15.30
2023-02-13T13:34:35.672Z,15.00
2023-02-13T13:37:11.723Z,15.00
2023-02-13T13:39:47.668Z,15.20
2023-02-13T13:42:22.030Z,15.00
2023-02-13T13:45:07.730Z,14.50
2023-02-13T13:47:51.106Z,14.60
2023-02-13T13:50:25.125Z,15.00
2023-02-13T13:53:18.997Z,15.20
2023-02-13T13:58:45.016Z,14.80
2023-02-13T14:01:29.447Z,14.90
2023-02-13T14:04:02.591Z,15.20
2023-02-13T14:06:55.376Z,15.40
2023-02-13T14:09:44.650Z,15.30
2023-02-13T14:12:45.298Z,14.80
2023-02-13T14:15:53.238Z,15.30
2023-02-13T14:18:27.133Z,15.10
2023-02-13T14:21:00.748Z,14.70
2023-02-13T14:23:42.222Z,14.50
2023-02-13T14:26:38.837Z,14.10
2023-02-13T14:29:34.916Z,13.60
2023-02-13T14:32:23.957Z,13.30
2023-02-13T14:34:58.079Z,13.70
2023-02-13T14:37:39.760Z,13.70
2023-02-13T14:40:49.255Z,13.50
2023-02-13T14:43:35.510Z,13.20
2023-02-13T14:49:15.654Z,13.30
2023-02-13T14:51:51.457Z,13.40
2023-02-13T14:54:28.696Z,12.90
2023-02-13T14:57:05.117Z,13.00
2023-02-13T14:59:37.824Z,12.60
2023-02-13T15:02:17.472Z,12.40
2023-02-13T15:04:51.181Z,12.70
2023-02-13T15:07:24.927Z,12.60
2023-02-13T15:09:58.103Z,12.80
2023-02-13T15:12:32.142Z,12.30
2023-02-13T15:15:05.977Z,12.10
2023-02-13T15:17:40.392Z,12.00
2023-02-13T15:20:21.621Z,12.00
2023-02-13T15:22:53.025Z,12.30
2023-02-13T15:25:33.335Z,12.80
2023-02-13T15:28:06.099Z,12.60
2023-02-13T15:30:39.072Z,12.40
2023-02-13T15:33:19.359Z,12.20
2023-02-13T15:35:56.817Z,12.40
2023-02-13T15:38:30.787Z,12.50
2023-02-13T15:41:05.475Z,12.30
2023-02-13T15:43:39.609Z,12.10
2023-02-13T15:46:22.084Z,11.90
2023-02-13T15:48:53.570Z,12.00
2023-02-13T15:51:26.853Z,12.00
2023-02-13T15:53:59.931Z,12.10
2023-02-13T15:56:31.980Z,11.90
2023-02-13T15:59:04.805Z,11.80
2023-02-13T16:01:36.055Z,11.90
2023-02-13T16:04:10.205Z,11.80
2023-02-13T16:06:42.126Z,11.90
2023-02-13T16:09:27.395Z,11.80
2023-02-13T16:12:07.032Z,11.70
2023-02-13T16:14:40.830Z,11.60
2023-02-13T16:17:17.009Z,11.50
2023-02-13T16:19:55.050Z,11.30
2023-02-13T16:22:34.056Z,11.20
2023-02-13T16:25:21.695Z,11.30
2023-02-13T16:27:54.469Z,11.30
2023-02-13T16:30:35.608Z,11.20
2023-02-13T16:33:25.676Z,11.10
2023-02-13T16:35:58.149Z,10.90
2023-02-13T16:38:34.873Z,10.60
2023-02-13T16:41:08.183Z,10.60
2023-02-13T16:43:47.292Z,10.60
2023-02-13T16:46:38.156Z,10.60
2023-02-13T16:49:20.837Z,10.30
2023-02-13T16:51:58.761Z,10.20
2023-02-13T16:54:38.638Z,10.10
2023-02-13T16:57:21.551Z,9.90
2023-02-13T16:59:56.910Z,10.00
2023-02-13T17:02:29.090Z,9.90
2023-02-13T17:05:02.990Z,9.90
2023-02-13T17:07:35.962Z,9.90
2023-02-13T17:10:09.837Z,9.80
2023-02-13T17:12:41.240Z,9.70
2023-02-13T17:15:15.901Z,9.50
2023-02-13T17:17:47.425Z,9.40
2023-02-13T17:20:20.901Z,9.40
2023-02-13T17:22:54.068Z,9.40
2023-02-13T17:25:26.387Z,9.40
2023-02-13T17:27:58.851Z,9.20
2023-02-13T17:30:31.471Z,9.10
2023-02-13T17:33:07.121Z,9.10
2023-02-13T17:35:38.253Z,8.90
2023-02-13T17:38:10.946Z,8.80
2023-02-13T17:40:44.296Z,8.60
2023-02-13T17:43:18.467Z,8.70
2023-02-13T17:45:50.440Z,8.60
2023-02-13T17:48:24.262Z,8.40
2023-02-13T17:50:55.205Z,8.30
2023-02-13T17:53:30.033Z,8.20
2023-02-13T17:56:01.520Z,8.10
2023-02-13T17:58:32.458Z,8.00
2023-02-13T18:01:04.354Z,7.80
2023-02-13T18:03:35.713Z,7.70
2023-02-13T18:06:13.259Z,7.60
2023-02-13T18:08:44.746Z,7.60
2023-02-13T18:11:15.776Z,7.60
2023-02-13T18:13:48.629Z,7.60
2023-02-13T18:16:21.949Z,7.50
2023-02-13T18:18:53.173Z,7.40
2023-02-13T18:21:25.828Z,7.50
2023-02-13T18:23:56.963Z,7.40
2023-02-13T18:26:28.081Z,7.30
2023-02-13T18:28:59.078Z,7.20
2023-02-13T18:31:30.996Z,7.20
2023-02-13T18:34:02.220Z,7.10
2023-02-13T18:36:33.311Z,7.10
2023-02-13T18:39:04.764Z,7.10
2023-02-13T18:41:35.862Z,7.00
2023-02-13T18:44:08.992Z,6.90
2023-02-13T18:46:40.198Z,6.70
2023-02-13T18:49:12.545Z,6.50
2023-02-13T18:51:44.610Z,6.50
2023-02-13T18:54:16.446Z,6.40
2023-02-13T18:56:47.570Z,6.40
2023-02-13T18:59:19.413Z,6.40
2023-02-13T19:01:51.186Z,6.30
2023-02-13T19:04:22.729Z,6.20
2023-02-13T19:06:54.230Z,6.00
2023-02-13T19:09:25.821Z,5.90
2023-02-13T19:11:57.148Z,5.80
2023-02-13T19:14:28.232Z,5.80
2023-02-13T19:16:59.407Z,5.80
2023-02-13T19:19:31.719Z,5.90
2023-02-13T19:22:02.694Z,5.90
2023-02-13T19:24:34.445Z,6.00
2023-02-13T19:27:06.333Z,6.00
2023-02-13T19:29:37.613Z,6.10
2023-02-13T19:32:09.070Z,6.10
2023-02-13T19:34:40.516Z,6.20
2023-02-13T19:37:11.388Z,6.20
2023-02-13T19:39:42.748Z,6.10
2023-02-13T19:42:13.797Z,6.00
2023-02-13T19:44:44.941Z,5.90
2023-02-13T19:47:16.647Z,5.90
2023-02-13T19:49:48.267Z,5.90
2023-02-13T19:52:19.112Z,5.90
2023-02-13T19:54:50.835Z,5.90
2023-02-13T19:57:22.762Z,5.90
2023-02-13T19:59:54.610Z,5.90
2023-02-13T20:02:25.983Z,5.80
2023-02-13T20:04:57.229Z,5.80
2023-02-13T20:07:28.165Z,5.60
2023-02-13T20:09:59.838Z,5.40
2023-02-13T20:12:31.480Z,5.30
2023-02-13T20:15:04.958Z,5.30
2023-02-13T20:17:39.136Z,5.30
2023-02-13T20:20:29.617Z,5.30
2023-02-13T20:23:00.706Z,5.70
2023-02-13T20:25:32.413Z,5.70
2023-02-13T20:28:03.661Z,5.60
2023-02-13T20:30:34.670Z,5.40
2023-02-13T20:33:05.993Z,5.20
2023-02-13T20:35:38.321Z,5.50
2023-02-13T20:38:09.450Z,5.50
2023-02-13T20:40:40.358Z,5.30
2023-02-13T20:43:11.281Z,5.20
2023-02-13T20:45:42.386Z,5.20
2023-02-13T20:48:13.363Z,5.20
2023-02-13T20:50:44.278Z,5.20
2023-02-13T20:53:15.374Z,5.30
2023-02-13T20:55:46.254Z,5.30
2023-02-13T20:58:17.168Z,5.30
2023-02-13T21:00:48.374Z,5.20
2023-02-13T21:03:19.180Z,5.20
2023-02-13T21:05:50.243Z,5.10
2023-02-13T21:08:21.664Z,5.00
2023-02-13T21:10:52.813Z,4.90
2023-02-13T21:13:23.964Z,4.80
2023-02-13T21:15:56.819Z,4.70
2023-02-13T21:18:28.172Z,4.60
2023-02-13T21:20:59.311Z,4.60
2023-02-13T21:23:30.559Z,4.70
2023-02-13T21:26:05.385Z,4.50
2023-02-13T21:28:37.310Z,4.60
2023-02-13T21:31:12.587Z,4.60
2023-02-13T21:33:43.466Z,4.80
2023-02-13T21:36:15.102Z,4.60
2023-02-13T21:38:45.815Z,4.60
2023-02-13T21:41:17.986Z,4.70
2023-02-13T21:43:49.525Z,4.70
2023-02-13T21:46:22.359Z,4.70
2023-02-13T21:48:57.039Z,4.60
2023-02-13T21:51:29.579Z,4.70
2023-02-13T21:54:01.346Z,4.60
2023-02-13T21:56:34.783Z,4.60
2023-02-13T21:59:06.657Z,4.60
2023-02-13T22:01:39.031Z,4.50
2023-02-13T22:04:11.425Z,4.20
2023-02-13T22:06:42.850Z,3.90
2023-02-13T22:09:15.778Z,3.60
2023-02-13T22:11:47.011Z,3.40
2023-02-13T22:14:19.334Z,3.40
2023-02-13T22:16:52.661Z,3.30
2023-02-13T22:19:23.773Z,3.20
2023-02-13T22:21:55.613Z,3.20
2023-02-13T22:24:27.917Z,3.30
2023-02-13T22:26:59.830Z,3.50
2023-02-13T22:29:30.943Z,3.70
2023-02-13T22:32:02.157Z,3.60
2023-02-13T22:34:33.302Z,3.80
2023-02-13T22:37:04.349Z,4.00
2023-02-13T22:39:35.394Z,4.10
2023-02-13T22:42:06.472Z,4.00
2023-02-13T22:44:37.234Z,4.00
2023-02-13T22:47:08.357Z,3.90
2023-02-13T22:49:39.483Z,3.90
2023-02-13T22:52:11.466Z,3.70
2023-02-13T22:54:42.411Z,3.60
2023-02-13T22:57:13.300Z,3.60
2023-02-13T22:59:44.843Z,3.70
2023-02-13T23:02:15.850Z,3.80
2023-02-13T23:04:48.309Z,4.20
2023-02-13T23:07:19.309Z,4.20
2023-02-13T23:09:50.945Z,4.10
2023-02-13T23:12:37.439Z,4.10
2023-02-13T23:15:11.323Z,4.00
2023-02-13T23:18:00.109Z,3.90
2023-02-13T23:20:31.373Z,3.70
2023-02-13T23:23:04.661Z,3.60
2023-02-13T23:25:35.266Z,3.50
2023-02-13T23:28:06.996Z,3.50
2023-02-13T23:30:37.942Z,3.50
2023-02-13T23:33:09.007Z,3.50
2023-02-13T23:35:40.137Z,3.40
2023-02-13T23:38:11.144Z,3.40
2023-02-13T23:40:41.987Z,3.20
2023-02-13T23:43:12.903Z,3.20
2023-02-13T23:45:44.212Z,3.20
2023-02-13T23:48:15.109Z,3.30
2023-02-13T23:50:46.024Z,3.20
2023-02-13T23:53:16.885Z,3.20
2023-02-13T23:55:47.910Z,3.20
2023-02-13T23:58:18.861Z,3.20
